Time;durP1;ratioP1;P1;durP2;ratioP2;P2;SDS_P1;SDS_P2;PMS_P1;PMS_P2;Temp;Humidity;BMP_temperature;BMP_pressure;BME280_temperature;BME280_humidity;BME280_pressure;Samples;Min_cycle;Max_cycle;Signal;HPM_P1;HPM_P2
2022/03/16 10:00:06;;;;;;;14.73;13.43;;;;;;;11.36;nan;102243.56;5061844;28;20039;-61
2022/03/16 10:02:31;;;;;;;14.77;13.35;;;;;;;11.26;nan;102248.25;5051873;28;20033;-60
2022/03/16 10:04:57;;;;;;;15.02;13.52;;;;;;;11.01;nan;102246.97;5047716;28;20062;-61
2022/03/16 10:07:29;;;;;;;15.95;14.43;;;;;;;11.02;nan;102258.25;5056631;28;20032;-60
2022/03/16 10:15:23;;;;;;;15.93;14.32;;;;;;;10.84;nan;102238.31;5046782;28;20039;-61
2022/03/16 10:18:00;;;;;;;16.33;13.77;;;;;;;10.94;nan;102234.50;5046403;28;20029;-59
2022/03/16 10:20:26;;;;;;;16.52;14.82;;;;;;;11.03;nan;102239.28;5064558;28;20047;-60
2022/03/16 10:23:14;;;;;;;15.80;13.93;;;;;;;10.97;nan;102241.56;5066555;28;20031;-61
2022/03/16 10:25:51;;;;;;;15.30;13.80;;;;;;;10.94;nan;102242.28;5049365;28;20385;-60
2022/03/16 10:28:20;;;;;;;15.38;13.98;;;;;;;10.96;nan;102252.72;5046431;28;20568;-61
2022/03/16 10:31:17;;;;;;;15.88;14.38;;;;;;;11.15;nan;102236.47;5046331;28;20025;-61
2022/03/16 10:33:49;;;;;;;14.45;13.02;;;;;;;11.20;nan;102247.97;5026237;28;20064;-61
2022/03/16 10:36:18;;;;;;;14.73;13.23;;;;;;;11.31;nan;102239.84;5046528;28;20025;-61
2022/03/16 10:38:45;;;;;;;15.18;13.57;;;;;;;11.50;nan;102232.19;5046880;28;20017;-61
2022/03/16 10:47:02;;;;;;;14.00;12.70;;;;;;;11.75;nan;102229.91;5045821;28;20508;-61
2022/03/16 10:49:34;;;;;;;14.93;13.40;;;;;;;11.94;nan;102234.31;5046320;28;20033;-61
2022/03/16 10:52:05;;;;;;;13.43;12.23;;;;;;;11.99;nan;102225.03;5050355;28;20506;-60
2022/03/16 10:54:31;;;;;;;13.15;11.95;;;;;;;12.13;nan;102219.63;5050203;28;20516;-61
2022/03/16 10:56:58;;;;;;;14.52;13.05;;;;;;;12.11;nan;102213.47;5049641;28;20488;-61
2022/03/16 10:59:32;;;;;;;13.32;11.85;;;;;;;12.16;nan;102211.97;5052440;28;20064;-61
2022/03/16 11:02:05;;;;;;;14.32;13.02;;;;;;;12.35;nan;102215.44;5058712;28;20646;-60
2022/03/16 11:04:32;;;;;;;13.52;12.18;;;;;;;12.05;nan;102214.06;5058570;28;20033;-61
2022/03/16 11:06:59;;;;;;;12.88;11.65;;;;;;;12.22;nan;102220.06;5055848;28;20024;-61
2022/03/16 11:09:25;;;;;;;13.23;12.02;;;;;;;12.39;nan;102216.47;5053688;28;20503;-61
2022/03/16 11:14:35;;;;;;;11.05;10.02;;;;;;;12.03;nan;102209.59;5049920;28;20575;-61
2022/03/16 11:17:02;;;;;;;12.80;11.55;;;;;;;11.98;nan;102215.44;5047125;28;20492;-59
2022/03/16 11:19:29;;;;;;;12.75;11.70;;;;;;;12.01;nan;102218.22;5046192;28;20112;-60
2022/03/16 11:22:06;;;;;;;13.00;11.88;;;;;;;11.82;nan;102208.59;5046946;28;20047;-59
2022/03/16 11:24:38;;;;;;;13.10;11.82;;;;;;;11.93;nan;102227.31;5048334;28;20016;-59
2022/03/16 11:27:30;;;;;;;13.52;12.32;;;;;;;11.98;nan;102225.81;5048015;28;20028;-61
2022/03/16 11:30:25;;;;;;;12.52;11.32;;;;;;;12.08;nan;102221.97;5047272;28;20114;-60
2022/03/16 11:32:56;;;;;;;14.02;12.38;;;;;;;12.06;nan;102226.22;5047565;28;20854;-61
2022/03/16 11:35:21;;;;;;;12.82;11.45;;;;;;;12.30;nan;102222.13;5029383;28;20017;-61
2022/03/16 11:37:49;;;;;;;12.15;10.98;;;;;;;12.26;nan;102215.91;5047649;28;20039;-62
2022/03/16 11:40:20;;;;;;;14.05;12.75;;;;;;;12.20;nan;102219.09;5047580;28;20409;-61
2022/03/16 11:43:04;;;;;;;14.45;13.00;;;;;;;12.21;nan;102215.69;5047618;28;20075;-59
2022/03/16 11:45:54;;;;;;;13.85;12.55;;;;;;;12.24;nan;102215.84;5047787;28;20112;-61
2022/03/16 11:48:31;;;;;;;12.52;11.32;;;;;;;12.20;nan;102220.78;5048922;28;20029;-61
2022/03/16 11:51:08;;;;;;;12.90;11.60;;;;;;;12.23;nan;102216.63;5049510;28;20025;-61
2022/03/16 11:53:57;;;;;;;11.75;10.65;;;;;;;12.39;nan;102225.19;5049068;28;20287;-61
2022/03/16 11:56:40;;;;;;;12.77;11.68;;;;;;;12.47;nan;102221.22;5052280;28;20028;-61
2022/03/16 11:59:16;;;;;;;11.68;10.45;;;;;;;12.41;nan;102223.50;5057589;28;20540;-61
2022/03/16 12:01:48;;;;;;;12.63;11.40;;;;;;;12.58;nan;102228.59;5048356;28;20508;-60
2022/03/16 12:04:15;;;;;;;12.93;11.73;;;;;;;12.61;nan;102229.63;5050340;28;20052;-61
2022/03/16 12:07:12;;;;;;;12.70;11.50;;;;;;;12.68;nan;102223.00;5048214;28;20644;-61
2022/03/16 12:09:47;;;;;;;12.75;11.57;;;;;;;12.73;nan;102221.53;5050334;28;20187;-60
2022/03/16 12:15:11;;;;;;;11.60;10.50;;;;;;;12.70;nan;102203.16;5048234;28;20262;-60
2022/03/16 12:17:54;;;;;;;13.20;11.82;;;;;;;12.65;nan;102204.66;5050777;28;20033;-60
2022/03/16 12:20:22;;;;;;;11.43;10.32;;;;;;;12.64;nan;102192.50;5048766;28;20323;-59
2022/03/16 12:22:52;;;;;;;12.57;11.30;;;;;;;12.67;nan;102197.81;5049368;28;20064;-61
2022/03/16 12:25:27;;;;;;;12.27;11.05;;;;;;;12.66;nan;102190.88;5048467;28;20155;-61
2022/03/16 12:30:45;;;;;;;13.30;11.77;;;;;;;12.60;nan;102188.88;5047509;28;20063;-60
2022/03/16 12:33:22;;;;;;;15.82;12.02;;;;;;;12.58;nan;102187.91;5047554;28;20066;-61
2022/03/16 12:36:15;;;;;;;13.70;11.02;;;;;;;12.58;nan;102187.91;5048408;28;20537;-60
2022/03/16 12:38:49;;;;;;;13.45;11.20;;;;;;;12.56;nan;102179.13;5043899;28;20337;-60
2022/03/16 12:44:04;;;;;;;12.00;10.45;;;;;;;12.58;nan;102177.50;5050629;28;20125;-60
2022/03/16 12:46:47;;;;;;;12.43;11.18;;;;;;;12.65;nan;102167.38;5047640;28;20017;-61
2022/03/16 12:49:15;;;;;;;11.75;10.68;;;;;;;12.69;nan;102164.09;5064486;28;20036;-61
2022/03/16 12:51:45;;;;;;;13.38;12.18;;;;;;;12.64;nan;102163.00;5047219;28;20094;-61
2022/03/16 12:54:13;;;;;;;13.80;11.45;;;;;;;12.54;nan;102166.91;5048281;28;20047;-60
2022/03/16 12:56:43;;;;;;;13.18;11.77;;;;;;;12.56;nan;102165.25;5048740;28;20499;-62
2022/03/16 12:59:08;;;;;;;12.50;11.20;;;;;;;12.60;nan;102164.56;5052472;28;20065;-61
2022/03/16 13:01:34;;;;;;;12.45;11.35;;;;;;;12.64;nan;102163.91;5047474;28;20499;-60
2022/03/16 13:04:05;;;;;;;12.45;11.25;;;;;;;12.65;nan;102160.47;5050368;28;20555;-61
2022/03/16 13:06:33;;;;;;;15.18;11.65;;;;;;;12.69;nan;102157.19;5046904;28;20052;-62
2022/03/16 13:09:03;;;;;;;12.90;11.70;;;;;;;12.72;nan;102159.00;5046385;28;20033;-60
2022/03/16 13:11:30;;;;;;;12.25;11.13;;;;;;;12.71;nan;102157.25;5047828;28;20040;-61
2022/03/16 13:14:05;;;;;;;12.98;11.77;;;;;;;12.71;nan;102152.94;5046741;28;20469;-60
2022/03/16 13:16:45;;;;;;;13.25;11.95;;;;;;;12.71;nan;102147.75;5047167;28;20036;-60
2022/03/16 13:19:25;;;;;;;12.32;11.05;;;;;;;12.72;nan;102151.22;5056131;28;20031;-61
2022/03/16 13:22:05;;;;;;;11.55;10.43;;;;;;;12.68;nan;102139.78;5051133;28;20020;-61
2022/03/16 13:24:36;;;;;;;10.60;9.60;;;;;;;12.66;nan;102137.94;5047547;28;20294;-61
2022/03/16 13:27:07;;;;;;;11.05;10.05;;;;;;;12.66;nan;102138.84;5046607;28;20061;-62
2022/03/16 13:29:34;;;;;;;10.43;9.50;;;;;;;12.69;nan;102125.06;5047227;28;20489;-61
2022/03/16 13:32:02;;;;;;;13.48;10.52;;;;;;;12.69;nan;102123.38;5046779;28;20087;-62
2022/03/16 13:34:28;;;;;;;11.90;10.70;;;;;;;12.71;nan;102121.72;5048130;28;20033;-60
2022/03/16 13:36:55;;;;;;;12.75;10.50;;;;;;;12.71;nan;102120.84;5047846;28;20536;-61
2022/03/16 13:39:25;;;;;;;12.35;11.13;;;;;;;12.70;nan;102114.75;5047951;28;20033;-61
2022/03/16 13:42:13;;;;;;;13.40;10.85;;;;;;;12.58;nan;102120.31;5047500;28;20508;-61
2022/03/16 13:44:50;;;;;;;11.55;10.48;;;;;;;12.54;nan;102114.91;5047763;28;20032;-61
2022/03/16 13:47:15;;;;;;;11.45;10.27;;;;;;;12.53;nan;102106.22;5047568;28;20060;-61
2022/03/16 13:49:44;;;;;;;10.55;9.55;;;;;;;12.59;nan;102095.19;5047664;28;20110;-60
2022/03/16 13:52:13;;;;;;;12.45;10.05;;;;;;;12.62;nan;102100.53;5053674;28;20056;-62
2022/03/16 13:54:39;;;;;;;11.68;10.43;;;;;;;12.58;nan;102090.81;5047587;28;20044;-62
2022/03/16 13:57:16;;;;;;;11.48;10.38;;;;;;;12.57;nan;102089.03;5047047;28;20393;-62
2022/03/16 13:59:50;;;;;;;10.60;9.63;;;;;;;12.58;nan;102083.00;5047235;28;20103;-61
2022/03/16 14:02:26;;;;;;;11.13;10.05;;;;;;;12.57;nan;102082.13;5047111;28;20029;-60
2022/03/16 14:05:17;;;;;;;12.30;11.13;;;;;;;12.62;nan;102069.31;5054940;28;20457;-61
2022/03/16 14:07:48;;;;;;;11.95;10.60;;;;;;;12.69;nan;102071.38;5038795;28;20041;-61
2022/03/16 14:10:22;;;;;;;11.48;10.45;;;;;;;12.65;nan;102053.84;5048328;28;20083;-61
2022/03/16 14:12:48;;;;;;;12.32;11.13;;;;;;;12.42;nan;102048.53;5063146;28;20081;-61
2022/03/16 14:15:18;;;;;;;11.70;10.48;;;;;;;12.44;nan;102053.81;5049586;28;20056;-61
2022/03/16 14:17:45;;;;;;;12.25;10.95;;;;;;;12.47;nan;102039.22;5047164;28;20028;-61
2022/03/16 14:20:13;;;;;;;13.27;10.45;;;;;;;12.47;nan;102044.44;5046942;28;20033;-61
2022/03/16 14:22:44;;;;;;;11.93;10.45;;;;;;;12.45;nan;102027.88;5047394;28;20035;-61
2022/03/16 14:25:37;;;;;;;12.45;10.25;;;;;;;12.43;nan;102026.03;5050658;28;20172;-61
2022/03/16 14:28:04;;;;;;;12.70;10.88;;;;;;;12.39;nan;102019.81;5047118;28;20409;-61
2022/03/16 14:30:35;;;;;;;12.20;9.82;;;;;;;12.40;nan;102021.59;5050659;28;20064;-60
2022/03/16 14:33:03;;;;;;;12.32;11.10;;;;;;;12.39;nan;102016.31;5052108;28;20082;-61
2022/03/16 14:35:30;;;;;;;11.57;10.48;;;;;;;12.31;nan;102021.19;5051301;28;20021;-61
2022/03/16 14:37:58;;;;;;;11.05;9.95;;;;;;;12.31;nan;102010.78;5050446;28;20071;-61
2022/03/16 14:40:24;;;;;;;12.27;11.05;;;;;;;12.38;nan;102020.63;5051214;28;20029;-61
2022/03/16 14:42:54;;;;;;;11.80;10.65;;;;;;;12.40;nan;102021.59;5057399;28;20043;-62
2022/03/16 14:45:23;;;;;;;11.25;10.13;;;;;;;12.38;nan;102018.03;5055768;28;20102;-61
2022/03/16 14:47:49;;;;;;;11.65;10.55;;;;;;;12.31;nan;102003.88;5051381;28;20094;-61
2022/03/16 14:50:14;;;;;;;11.65;10.45;;;;;;;12.34;nan;102001.41;5049886;28;20025;-61
2022/03/16 14:52:39;;;;;;;11.65;10.35;;;;;;;12.25;nan;101995.81;5050891;28;20025;-61
2022/03/16 14:55:06;;;;;;;11.20;9.95;;;;;;;12.28;nan;101995.06;5050027;28;20048;-61
2022/03/16 14:57:31;;;;;;;10.52;9.57;;;;;;;12.25;nan;101994.09;5051124;28;20025;-61
2022/03/16 14:59:57;;;;;;;11.23;9.98;;;;;;;12.21;nan;101992.22;5053415;28;20049;-62
2022/03/16 15:02:26;;;;;;;11.10;9.95;;;;;;;12.23;nan;101974.09;5060050;28;20044;-61
2022/03/16 15:04:52;;;;;;;10.63;9.50;;;;;;;12.24;nan;101979.34;5052836;28;20699;-61
2022/03/16 15:07:17;;;;;;;11.07;9.68;;;;;;;12.24;nan;101976.75;5053076;28;20082;-61
2022/03/16 15:09:43;;;;;;;11.23;9.48;;;;;;;12.22;nan;101974.91;5049818;28;20461;-62
2022/03/16 15:12:08;;;;;;;10.30;9.30;;;;;;;12.17;nan;101966.00;5050317;28;20451;-61
2022/03/16 15:14:34;;;;;;;14.85;10.63;;;;;;;12.17;nan;101966.91;5049378;28;20036;-62
2022/03/16 15:16:59;;;;;;;11.15;9.75;;;;;;;12.15;nan;101973.75;5050273;28;20522;-61
2022/03/16 15:19:24;;;;;;;11.60;10.40;;;;;;;12.16;nan;101970.31;5052564;28;20025;-59
2022/03/16 15:21:50;;;;;;;10.98;9.88;;;;;;;12.14;nan;101964.19;5054506;28;20035;-62
2022/03/16 15:24:15;;;;;;;12.65;9.85;;;;;;;12.09;nan;101963.03;5050537;28;20028;-62
2022/03/16 15:26:41;;;;;;;10.00;8.48;;;;;;;12.06;nan;101973.31;5052633;28;20048;-62
2022/03/16 15:29:09;;;;;;;10.45;9.45;;;;;;;12.01;nan;101968.81;5054030;28;20048;-62
2022/03/16 15:31:36;;;;;;;12.80;9.60;;;;;;;12.00;nan;101963.53;5049910;28;20032;-61
2022/03/16 15:34:05;;;;;;;9.70;8.70;;;;;;;11.97;nan;101969.50;5050287;28;20032;-62
2022/03/16 15:36:31;;;;;;;10.68;9.57;;;;;;;11.98;nan;101968.66;5048943;28;20061;-62
2022/03/16 15:38:56;;;;;;;10.20;9.20;;;;;;;11.99;nan;101966.94;5049824;28;20068;-62
2022/03/16 15:44:13;;;;;;;10.88;9.95;;;;;;;11.92;nan;101955.41;5026149;28;20075;-62
2022/03/16 15:46:38;;;;;;;10.93;9.18;;;;;;;11.87;nan;101950.00;5049451;28;20060;-62
2022/03/16 15:49:04;;;;;;;11.88;9.48;;;;;;;11.88;nan;101953.50;5049645;28;20040;-61
2022/03/16 15:51:29;;;;;;;11.07;9.52;;;;;;;11.85;nan;101967.25;5049645;28;20485;-60
2022/03/16 15:53:54;;;;;;;12.68;9.30;;;;;;;11.84;nan;101975.84;5049728;28;20021;-62
2022/03/16 15:56:19;;;;;;;11.13;9.18;;;;;;;11.82;nan;101985.25;5030989;28;20087;-60
2022/03/16 15:58:45;;;;;;;13.88;9.13;;;;;;;11.80;nan;101997.28;5048846;28;20049;-62
2022/03/16 16:01:10;;;;;;;9.63;8.68;;;;;;;11.80;nan;101996.41;5030844;28;20495;-62
2022/03/16 16:03:37;;;;;;;12.60;9.40;;;;;;;11.74;nan;101984.94;5048634;28;20021;-61
2022/03/16 16:06:02;;;;;;;13.10;9.38;;;;;;;11.74;nan;101979.75;5048335;28;20013;-61
2022/03/16 16:08:29;;;;;;;9.85;8.63;;;;;;;11.71;nan;101965.72;5049877;28;20033;-61
2022/03/16 16:11:11;;;;;;;9.93;8.95;;;;;;;11.67;nan;101956.91;5048958;28;20024;-61
2022/03/16 16:13:42;;;;;;;9.57;8.68;;;;;;;11.63;nan;101963.66;5049096;28;20028;-60
2022/03/16 16:16:09;;;;;;;12.27;9.63;;;;;;;11.63;nan;101984.44;5049277;28;20017;-62
2022/03/16 16:18:35;;;;;;;9.50;8.02;;;;;;;11.63;nan;101994.81;5048488;28;20029;-61
2022/03/16 16:21:03;;;;;;;11.77;8.20;;;;;;;11.62;nan;101994.75;5047392;28;20037;-61
2022/03/16 16:23:29;;;;;;;9.15;8.00;;;;;;;11.59;nan;101986.81;5047720;28;20036;-62
2022/03/16 16:25:54;;;;;;;9.60;8.32;;;;;;;11.57;nan;101978.06;5051411;28;20037;-62
2022/03/16 16:28:24;;;;;;;11.20;8.63;;;;;;;11.57;nan;101972.84;5047983;28;20028;-62
2022/03/16 16:30:54;;;;;;;12.43;8.60;;;;;;;11.53;nan;101966.66;5048550;28;20040;-62
2022/03/16 16:33:20;;;;;;;10.85;9.23;;;;;;;11.51;nan;101958.78;5049055;28;20044;-61
2022/03/16 16:35:45;;;;;;;10.70;8.13;;;;;;;11.47;nan;101956.88;5057693;28;20028;-62
2022/03/16 16:38:12;;;;;;;10.38;8.57;;;;;;;11.45;nan;101952.44;5049442;28;20047;-61
2022/03/16 16:40:39;;;;;;;11.02;8.85;;;;;;;11.44;nan;101954.13;5048887;28;20497;-62
2022/03/16 16:43:14;;;;;;;9.63;8.43;;;;;;;11.43;nan;101952.34;5047839;28;20032;-62
2022/03/16 16:45:50;;;;;;;9.40;8.27;;;;;;;11.43;nan;101960.16;5047920;28;20021;-62
2022/03/16 16:48:24;;;;;;;11.90;7.88;;;;;;;11.43;nan;101959.25;5048792;28;20396;-61
2022/03/16 16:50:52;;;;;;;11.00;7.93;;;;;;;11.40;nan;101945.31;5048064;28;20021;-62
2022/03/16 16:53:19;;;;;;;10.95;8.18;;;;;;;11.40;nan;101944.44;5049091;28;20493;-61
2022/03/16 16:55:45;;;;;;;9.15;8.30;;;;;;;11.37;nan;101939.13;5048669;28;20021;-62
2022/03/16 16:58:10;;;;;;;8.70;7.90;;;;;;;11.36;nan;101937.31;5049193;28;20025;-62
2022/03/16 17:00:39;;;;;;;9.13;8.23;;;;;;;11.33;nan;101942.38;5048700;28;20445;-62
2022/03/16 17:03:05;;;;;;;10.63;8.50;;;;;;;11.29;nan;101933.56;5048544;28;20074;-61
2022/03/16 17:05:30;;;;;;;11.93;8.05;;;;;;;11.26;nan;101929.09;5047383;28;20492;-62
2022/03/16 17:08:01;;;;;;;8.77;7.88;;;;;;;11.25;nan;101929.03;5047966;28;20345;-61
2022/03/16 17:10:29;;;;;;;9.15;8.15;;;;;;;11.24;nan;101916.88;5051503;28;20031;-61
2022/03/16 17:12:55;;;;;;;10.70;7.68;;;;;;;11.22;nan;101911.63;5050069;28;20029;-61
2022/03/16 17:15:21;;;;;;;8.68;7.78;;;;;;;11.20;nan;101920.16;5065734;28;20070;-62
2022/03/16 17:17:50;;;;;;;10.05;8.27;;;;;;;11.18;nan;101922.69;5066969;28;20028;-59
2022/03/16 17:20:23;;;;;;;9.38;7.43;;;;;;;11.17;nan;101926.97;5059217;28;20024;-62
2022/03/16 17:22:51;;;;;;;11.25;8.27;;;;;;;11.19;nan;101924.44;5046061;28;20036;-61
2022/03/16 17:25:17;;;;;;;8.50;7.70;;;;;;;11.14;nan;101913.84;5047751;28;20074;-61
2022/03/16 17:27:44;;;;;;;8.57;7.10;;;;;;;11.11;nan;101918.00;5047818;28;20025;-62
2022/03/16 17:30:14;;;;;;;13.93;8.00;;;;;;;11.09;nan;101906.66;5047261;28;20029;-61
2022/03/16 17:32:39;;;;;;;9.93;8.27;;;;;;;11.08;nan;101923.94;5047434;28;20154;-61
2022/03/16 17:35:09;;;;;;;11.48;7.75;;;;;;;11.04;nan;101917.72;5047213;28;20469;-61
2022/03/16 17:37:38;;;;;;;10.15;8.27;;;;;;;11.01;nan;101914.13;5047768;28;20522;-61
2022/03/16 17:40:07;;;;;;;8.60;7.80;;;;;;;10.97;nan;101899.22;5047654;28;20070;-62
2022/03/16 17:45:32;;;;;;;9.38;7.75;;;;;;;10.91;nan;101907.59;5030564;28;20044;-61
2022/03/16 17:48:18;;;;;;;9.50;8.07;;;;;;;10.87;nan;101905.66;5049926;28;20085;-62
2022/03/16 17:50:49;;;;;;;8.73;7.88;;;;;;;10.86;nan;101893.50;5064724;28;20416;-62
2022/03/16 17:53:16;;;;;;;8.55;7.70;;;;;;;10.80;nan;101895.00;5045709;28;20028;-60
2022/03/16 17:58:27;;;;;;;8.55;7.40;;;;;;;10.75;nan;101891.31;5046175;28;20047;-61
2022/03/16 18:00:52;;;;;;;8.95;8.07;;;;;;;10.73;nan;101892.94;5048002;28;20033;-60
2022/03/16 18:03:18;;;;;;;9.57;8.18;;;;;;;10.72;nan;101891.13;5050063;28;20052;-62
2022/03/16 18:05:45;;;;;;;8.32;7.50;;;;;;;10.67;nan;101883.16;5048969;28;20094;-61
2022/03/16 18:08:14;;;;;;;8.68;7.80;;;;;;;10.68;nan;101884.03;5049489;28;20020;-61
2022/03/16 18:13:27;;;;;;;9.77;7.60;;;;;;;10.61;nan;101882.88;5047168;28;20152;-62
2022/03/16 18:15:56;;;;;;;9.20;8.35;;;;;;;10.61;nan;101893.22;5048985;28;20029;-61
2022/03/16 18:18:23;;;;;;;8.48;7.57;;;;;;;10.60;nan;101895.72;5049794;28;20025;-62
2022/03/16 18:20:50;;;;;;;7.97;7.18;;;;;;;10.57;nan;101897.38;5046280;28;20064;-62
2022/03/16 18:23:16;;;;;;;9.43;8.52;;;;;;;10.53;nan;101892.84;5046281;28;20035;-61
2022/03/16 18:25:44;;;;;;;10.85;8.93;;;;;;;10.50;nan;101900.47;5063666;28;20296;-61
2022/03/16 18:28:10;;;;;;;11.82;8.82;;;;;;;10.48;nan;101889.16;5055986;28;20043;-60
2022/03/16 18:30:35;;;;;;;9.13;8.30;;;;;;;10.47;nan;101899.41;5058216;28;20040;-61
2022/03/16 18:33:02;;;;;;;9.63;8.05;;;;;;;10.43;nan;101883.69;5062791;28;20170;-61
2022/03/16 18:35:28;;;;;;;8.50;7.70;;;;;;;10.44;nan;101889.75;5057987;28;20091;-62
2022/03/16 18:37:53;;;;;;;9.15;8.25;;;;;;;10.43;nan;101882.81;5065578;28;20896;-61
2022/03/16 18:40:20;;;;;;;9.77;8.80;;;;;;;10.41;nan;101890.50;5065598;28;20020;-61
2022/03/16 18:42:47;;;;;;;9.85;8.85;;;;;;;10.41;nan;101890.50;5062301;28;20414;-62
2022/03/16 18:45:13;;;;;;;10.32;8.95;;;;;;;10.39;nan;101886.06;5058419;28;20029;-62
2022/03/16 18:47:38;;;;;;;9.40;8.50;;;;;;;10.39;nan;101886.06;5058977;28;20384;-62
2022/03/16 18:50:05;;;;;;;9.90;8.65;;;;;;;10.37;nan;101883.41;5060408;28;20032;-62
2022/03/16 18:52:31;;;;;;;10.25;8.73;;;;;;;10.36;nan;101881.59;5056147;28;20496;-62
2022/03/16 18:54:56;;;;;;;10.50;9.50;;;;;;;10.35;nan;101879.84;5065333;28;20028;-62
2022/03/16 18:57:22;;;;;;;10.05;9.10;;;;;;;10.35;nan;101889.28;5064587;28;20017;-62
2022/03/16 18:59:50;;;;;;;10.07;9.15;;;;;;;10.30;nan;101879.63;5065026;28;20068;-62
2022/03/16 19:02:16;;;;;;;10.95;9.85;;;;;;;10.30;nan;101873.53;5066635;28;20024;-61
2022/03/16 19:04:45;;;;;;;10.88;9.77;;;;;;;10.30;nan;101881.31;5047614;28;20123;-62
2022/03/16 19:07:10;;;;;;;10.52;9.52;;;;;;;10.31;nan;101883.97;5046064;28;20024;-61
2022/03/16 19:09:38;;;;;;;10.85;9.85;;;;;;;10.28;nan;101878.66;5046769;28;20033;-62
2022/03/16 19:14:48;;;;;;;10.82;9.73;;;;;;;10.29;nan;101884.72;5050857;28;20124;-60
2022/03/16 19:17:13;;;;;;;12.10;9.75;;;;;;;10.26;nan;101884.53;5050937;28;20095;-62
2022/03/16 19:19:39;;;;;;;11.40;10.35;;;;;;;10.24;nan;101881.88;5057250;28;20031;-61
2022/03/16 19:22:06;;;;;;;11.20;10.05;;;;;;;10.21;nan;101867.09;5065797;28;20824;-62
2022/03/16 19:24:36;;;;;;;11.63;9.95;;;;;;;10.20;nan;101872.16;5062817;28;20120;-61
2022/03/16 19:27:02;;;;;;;12.30;10.48;;;;;;;10.21;nan;101872.28;5061006;28;20531;-60
2022/03/16 19:29:28;;;;;;;13.68;10.90;;;;;;;10.22;nan;101878.31;5055047;28;20281;-61
2022/03/16 19:31:53;;;;;;;12.35;10.50;;;;;;;10.20;nan;101873.06;5052116;28;20382;-62
2022/03/16 19:34:18;;;;;;;11.43;10.32;;;;;;;10.19;nan;101878.19;5049016;28;20473;-59
2022/03/16 19:36:49;;;;;;;11.77;10.57;;;;;;;10.17;nan;101877.22;5055052;28;20466;-62
2022/03/16 19:39:15;;;;;;;12.43;11.05;;;;;;;10.16;nan;101889.28;5049627;28;20025;-62
2022/03/16 19:41:40;;;;;;;12.32;11.02;;;;;;;10.16;nan;101888.41;5061065;28;20048;-62
2022/03/16 19:44:05;;;;;;;12.07;10.85;;;;;;;10.18;nan;101899.72;5052502;28;20074;-60
2022/03/16 19:46:31;;;;;;;13.70;12.40;;;;;;;10.18;nan;101899.72;5050495;28;20115;-61
2022/03/16 19:48:56;;;;;;;12.18;10.98;;;;;;;10.18;nan;101902.31;5047254;28;20021;-61
2022/03/16 19:51:23;;;;;;;12.13;11.00;;;;;;;10.19;nan;101906.66;5062958;28;20415;-61
2022/03/16 19:53:49;;;;;;;13.07;11.82;;;;;;;10.17;nan;101908.28;5054602;28;20025;-61
2022/03/16 19:56:15;;;;;;;13.38;11.95;;;;;;;10.18;nan;101907.50;5046893;28;20044;-61
2022/03/16 19:58:40;;;;;;;14.10;12.43;;;;;;;10.14;nan;101906.44;5046830;28;20075;-61
2022/03/16 20:01:05;;;;;;;12.85;11.63;;;;;;;10.18;nan;101910.09;5047775;28;20070;-62
2022/03/16 20:03:32;;;;;;;14.30;11.93;;;;;;;10.18;nan;101912.69;5048884;28;20404;-62
2022/03/16 20:05:57;;;;;;;13.20;11.80;;;;;;;10.15;nan;101917.69;5047458;28;20024;-61
2022/03/16 20:08:23;;;;;;;13.07;11.80;;;;;;;10.20;nan;101908.44;5049720;28;20025;-61
2022/03/16 20:10:50;;;;;;;13.55;12.27;;;;;;;10.17;nan;101903.09;5048918;28;20051;-61
2022/03/16 20:13:17;;;;;;;14.05;12.75;;;;;;;10.17;nan;101909.19;5050958;28;20380;-61
2022/03/16 20:15:44;;;;;;;13.38;12.07;;;;;;;10.14;nan;101900.38;5045678;28;20031;-62
2022/03/16 20:18:11;;;;;;;13.40;12.13;;;;;;;10.17;nan;101895.34;5046853;28;20170;-62
2022/03/16 20:20:41;;;;;;;13.50;11.90;;;;;;;10.16;nan;101893.56;5047887;28;20719;-60
2022/03/16 20:23:06;;;;;;;16.15;14.55;;;;;;;10.16;nan;101889.28;5048526;28;20024;-61
2022/03/16 20:25:32;;;;;;;14.15;12.75;;;;;;;10.12;nan;101886.44;5054872;28;20712;-60
2022/03/16 20:27:58;;;;;;;14.65;13.25;;;;;;;10.12;nan;101886.44;5046479;28;20495;-62
2022/03/16 20:30:23;;;;;;;13.93;12.63;;;;;;;10.14;nan;101884.81;5045728;28;20052;-61
2022/03/16 20:32:49;;;;;;;13.98;12.55;;;;;;;10.13;nan;101888.25;5041835;28;20016;-62
2022/03/16 20:35:14;;;;;;;14.40;13.00;;;;;;;10.16;nan;101883.22;5047891;28;20021;-59
2022/03/16 20:37:39;;;;;;;14.10;12.60;;;;;;;10.10;nan;101878.59;5046331;28;20473;-61
2022/03/16 20:40:06;;;;;;;14.57;13.15;;;;;;;10.13;nan;101889.09;5048020;28;20102;-61
2022/03/16 20:42:31;;;;;;;16.00;13.20;;;;;;;10.12;nan;101882.16;5047883;28;20032;-61
2022/03/16 20:44:57;;;;;;;14.60;13.20;;;;;;;10.12;nan;101881.28;5049346;28;20036;-61
2022/03/16 20:47:22;;;;;;;15.10;13.57;;;;;;;10.09;nan;101888.06;5049025;28;20021;-60
2022/03/16 20:49:47;;;;;;;14.55;13.25;;;;;;;10.09;nan;101879.44;5048089;28;20218;-62
2022/03/16 20:52:13;;;;;;;15.90;14.20;;;;;;;10.06;nan;101884.44;5046182;28;20025;-61
2022/03/16 20:54:39;;;;;;;15.32;13.73;;;;;;;10.05;nan;101887.84;5054649;28;20024;-60
2022/03/16 20:57:05;;;;;;;20.95;13.90;;;;;;;10.06;nan;101890.50;5058511;28;20013;-61
2022/03/16 21:02:18;;;;;;;14.70;13.10;;;;;;;10.04;nan;101894.72;5048261;28;20750;-61
2022/03/16 21:04:44;;;;;;;17.05;13.73;;;;;;;10.04;nan;101884.34;5045113;28;20053;-61
2022/03/16 21:07:09;;;;;;;15.27;13.77;;;;;;;10.01;nan;101894.56;5051826;28;20363;-61
2022/03/16 21:09:35;;;;;;;14.68;13.27;;;;;;;10.03;nan;101898.13;5045094;28;20025;-61
2022/03/16 21:12:00;;;;;;;15.43;13.93;;;;;;;10.04;nan;101896.41;5043913;28;20116;-61
2022/03/16 21:14:29;;;;;;;17.15;15.40;;;;;;;10.01;nan;101894.56;5044715;28;20415;-61
2022/03/16 21:16:55;;;;;;;16.20;14.35;;;;;;;10.01;nan;101893.66;5055017;28;20062;-61
2022/03/16 21:19:21;;;;;;;15.40;13.90;;;;;;;10.02;nan;101896.34;5060691;28;20178;-61
2022/03/16 21:21:47;;;;;;;16.35;14.65;;;;;;;10.02;nan;101895.47;5065460;28;20115;-62
2022/03/16 21:24:13;;;;;;;17.15;15.15;;;;;;;10.00;nan;101900.53;5065620;28;20024;-62
2022/03/16 21:26:38;;;;;;;16.40;14.77;;;;;;;10.00;nan;101902.25;5060444;28;20085;-62
2022/03/16 21:29:07;;;;;;;15.70;14.13;;;;;;;9.97;nan;101900.38;5048263;28;20025;-61
2022/03/16 21:31:33;;;;;;;16.35;14.65;;;;;;;9.98;nan;101891.81;5052654;28;20481;-61
2022/03/16 21:33:58;;;;;;;16.58;14.88;;;;;;;9.96;nan;101896.94;5061134;28;20028;-61
2022/03/16 21:36:24;;;;;;;16.85;14.82;;;;;;;9.95;nan;101900.31;5057792;28;20032;-61
2022/03/16 21:38:50;;;;;;;15.70;14.05;;;;;;;9.95;nan;101907.19;5051793;28;20021;-61
2022/03/16 21:44:20;;;;;;;17.48;15.68;;;;;;;9.91;nan;101897.50;5067669;28;20038;-61
2022/03/16 21:46:45;;;;;;;16.27;14.68;;;;;;;9.90;nan;101900.88;5055636;28;20362;-61
2022/03/16 21:49:12;;;;;;;15.85;14.25;;;;;;;9.90;nan;101906.97;5047272;28;20035;-62
2022/03/16 21:51:41;;;;;;;17.30;15.00;;;;;;;9.89;nan;101905.19;5052644;28;20025;-61
2022/03/16 21:54:06;;;;;;;17.30;14.57;;;;;;;9.89;nan;101909.47;5047438;28;20039;-61
2022/03/16 21:56:32;;;;;;;17.33;15.57;;;;;;;9.89;nan;101905.19;5048080;28;20013;-62
2022/03/16 21:58:57;;;;;;;17.58;15.52;;;;;;;9.91;nan;101908.72;5047312;28;20242;-61
2022/03/16 22:01:22;;;;;;;23.98;16.70;;;;;;;9.88;nan;101905.09;5047284;28;20040;-61
2022/03/16 22:03:48;;;;;;;16.98;15.35;;;;;;;9.90;nan;101911.22;5069699;28;20463;-61
2022/03/16 22:06:14;;;;;;;17.15;15.52;;;;;;;9.87;nan;101908.50;5087913;28;20130;-61
2022/03/16 22:08:39;;;;;;;18.15;16.45;;;;;;;9.82;nan;101909.13;5063774;28;20421;-61
2022/03/16 22:11:08;;;;;;;17.23;15.63;;;;;;;9.83;nan;101910.03;5047238;28;20377;-61
2022/03/16 22:13:34;;;;;;;18.60;16.65;;;;;;;9.82;nan;101914.31;5046237;28;20025;-61
2022/03/16 22:15:59;;;;;;;18.08;15.38;;;;;;;9.83;nan;101907.44;5046104;28;20024;-60
2022/03/16 22:18:25;;;;;;;18.00;16.33;;;;;;;9.82;nan;101914.31;5048719;28;20081;-62